Time;durP1;ratioP1;P1;durP2;ratioP2;P2;SDS_P1;SDS_P2;PMS_P1;PMS_P2;Temp;Humidity;BMP_temperature;BMP_pressure;BME280_temperature;BME280_humidity;BME280_pressure;Samples;Min_cycle;Max_cycle;Signal;HPM_P1;HPM_P2
2023/01/30 00:01:14;;;;;;;12.60;9.63;;;;;;;-0.66;80.48;99435.44;4993169;28;103897;-65
2023/01/30 00:03:44;;;;;;;13.00;8.50;;;;;;;-0.54;80.13;99428.34;4990024;28;103194;-64
2023/01/30 00:06:12;;;;;;;11.33;8.13;;;;;;;-0.52;79.45;99419.63;4998041;28;102872;-64
2023/01/30 00:08:42;;;;;;;11.53;8.13;;;;;;;-0.49;79.07;99405.75;4998580;28;104018;-64
2023/01/30 00:11:12;;;;;;;11.00;8.87;;;;;;;-0.47;79.07;99393.59;4994365;28;104173;-64
2023/01/30 00:13:42;;;;;;;12.73;9.40;;;;;;;-0.47;78.60;99384.06;4997409;28;102971;-64
2023/01/30 00:16:12;;;;;;;16.60;10.23;;;;;;;-0.86;77.97;99384.72;4994280;28;102597;-64
2023/01/30 00:18:41;;;;;;;13.70;10.83;;;;;;;-1.05;79.50;99388.50;4992806;28;102819;-63
2023/01/30 00:21:13;;;;;;;14.13;10.60;;;;;;;-1.29;82.29;99394.91;4991582;28;104123;-64
2023/01/30 00:23:41;;;;;;;16.57;10.70;;;;;;;-1.20;82.49;99394.75;4998933;28;103208;-64
2023/01/30 00:26:10;;;;;;;14.07;10.97;;;;;;;-1.24;82.15;99398.28;4993937;28;102713;-64
2023/01/30 00:28:39;;;;;;;13.90;9.47;;;;;;;-1.14;82.46;99394.66;4997109;28;103693;-64
2023/01/30 00:31:08;;;;;;;10.17;8.77;;;;;;;-0.87;81.48;99388.22;4996426;28;103256;-63
2023/01/30 00:33:38;;;;;;;11.97;9.00;;;;;;;-0.80;81.53;99379.44;4996808;28;103392;-64
2023/01/30 00:36:07;;;;;;;16.20;11.03;;;;;;;-0.99;79.54;99378.03;4990351;28;102704;-64
2023/01/30 00:38:36;;;;;;;13.63;10.83;;;;;;;-1.34;80.87;99366.44;4998210;28;103980;-63
2023/01/30 00:41:07;;;;;;;14.87;10.63;;;;;;;-1.63;82.78;99373.75;4995214;28;103647;-63
2023/01/30 00:49:12;;;;;;;14.33;11.23;;;;;;;-1.27;82.01;99394.00;4993935;28;102692;-64
2023/01/30 00:51:41;;;;;;;14.17;10.07;;;;;;;-1.14;81.68;99409.38;4993977;28;103212;-64
2023/01/30 00:54:10;;;;;;;15.77;11.50;;;;;;;-1.19;82.57;99402.53;4999316;28;103202;-64
2023/01/30 00:56:38;;;;;;;12.90;9.53;;;;;;;-1.03;81.95;99418.72;5001735;28;103082;-64
2023/01/30 00:59:06;;;;;;;15.40;11.37;;;;;;;-0.92;81.42;99427.19;4995809;28;103771;-64
2023/01/30 01:01:36;;;;;;;14.73;10.07;;;;;;;-0.99;81.32;99448.94;4997740;28;104236;-64
2023/01/30 01:04:05;;;;;;;16.43;11.53;;;;;;;-1.32;82.83;99454.56;5000601;28;103190;-64
2023/01/30 01:06:33;;;;;;;15.30;11.70;;;;;;;-1.39;83.07;99450.31;5001575;28;102910;-64
2023/01/30 01:09:01;;;;;;;15.07;11.30;;;;;;;-1.36;83.39;99460.66;4996032;28;102697;-63
2023/01/30 01:11:31;;;;;;;16.03;11.10;;;;;;;-1.09;83.19;99444.72;4999681;28;104098;-64
2023/01/30 01:14:01;;;;;;;12.80;9.83;;;;;;;-0.88;82.20;99441.84;4999977;28;104196;-64
2023/01/30 01:16:30;;;;;;;14.90;10.37;;;;;;;-0.92;81.06;99447.94;5001124;28;103120;-64
2023/01/30 01:18:59;;;;;;;12.67;9.57;;;;;;;-0.84;81.16;99446.09;4995692;28;103223;-64
2023/01/30 01:21:27;;;;;;;14.37;9.43;;;;;;;-0.76;80.63;99449.41;5001015;28;103636;-64
2023/01/30 01:23:59;;;;;;;12.67;9.17;;;;;;;-0.74;80.38;99442.50;4993541;28;103214;-65
2023/01/30 01:26:27;;;;;;;14.20;10.60;;;;;;;-0.68;80.43;99452.78;5001508;28;102634;-64
2023/01/30 01:28:57;;;;;;;11.93;9.10;;;;;;;-0.70;79.87;99462.31;4996604;28;102805;-65
2023/01/30 01:31:25;;;;;;;14.63;10.93;;;;;;;-0.83;79.35;99465.97;5000941;28;103250;-65
2023/01/30 01:33:56;;;;;;;13.73;10.53;;;;;;;-0.78;80.96;99474.53;4999477;28;105947;-65
2023/01/30 01:36:25;;;;;;;13.73;10.00;;;;;;;-0.70;80.98;99457.13;4988881;28;102670;-64
2023/01/30 01:39:13;;;;;;;13.97;10.47;;;;;;;-0.59;80.46;99451.78;4999135;28;103491;-65
2023/01/30 01:41:41;;;;;;;13.00;9.10;;;;;;;-0.60;80.28;99452.66;4999216;28;103236;-64
2023/01/30 01:44:12;;;;;;;12.17;9.07;;;;;;;-0.54;80.20;99454.28;5000968;28;102674;-64
2023/01/30 01:46:59;;;;;;;14.27;11.10;;;;;;;-0.67;79.01;99458.81;4997992;28;102742;-64
2023/01/30 01:49:30;;;;;;;11.20;9.47;;;;;;;-0.60;80.08;99450.94;4999279;28;103422;-65
2023/01/30 01:52:03;;;;;;;10.47;7.83;;;;;;;-0.48;80.23;99454.19;5000438;28;103243;-65
2023/01/30 01:54:34;;;;;;;11.87;8.60;;;;;;;-0.47;79.78;99448.97;4989954;28;104483;-65
2023/01/30 01:57:10;;;;;;;13.53;9.03;;;;;;;-0.49;79.89;99426.53;4999687;28;102710;-65
2023/01/30 01:59:48;;;;;;;13.43;10.50;;;;;;;-0.64;78.88;99441.44;5025698;27;102855;-65
2023/01/30 02:02:17;;;;;;;11.80;8.97;;;;;;;-0.63;79.97;99456.16;4997512;28;104286;-64
2023/01/30 02:05:01;;;;;;;16.37;11.43;;;;;;;-1.14;81.26;99456.03;4995721;28;104370;-64
2023/01/30 02:07:34;;;;;;;14.00;10.03;;;;;;;-1.15;81.31;99454.34;4999584;28;102703;-65
2023/01/30 02:10:03;;;;;;;13.00;9.53;;;;;;;-0.83;82.01;99457.34;4999001;28;103727;-65
2023/01/30 02:12:32;;;;;;;13.60;10.00;;;;;;;-0.67;81.68;99440.63;5000399;28;103701;-65
2023/01/30 02:15:03;;;;;;;13.37;9.07;;;;;;;-0.53;81.53;99435.25;4998564;28;103262;-64
2023/01/30 02:17:32;;;;;;;13.33;9.53;;;;;;;-0.54;80.51;99430.94;4999623;28;102787;-65
2023/01/30 02:20:11;;;;;;;16.40;11.33;;;;;;;-0.55;80.09;99417.09;4999319;28;102785;-64
2023/01/30 02:23:10;;;;;;;12.63;9.77;;;;;;;-0.53;79.69;99414.50;5000103;28;103230;-64
2023/01/30 02:26:05;;;;;;;14.00;11.43;;;;;;;-0.62;80.08;99408.53;4999661;28;103206;-64
2023/01/30 02:29:02;;;;;;;11.73;8.57;;;;;;;-0.65;80.26;99403.44;4994386;28;102596;-64
2023/01/30 02:31:41;;;;;;;15.43;11.13;;;;;;;-0.67;80.47;99404.31;4996305;28;104341;-64
2023/01/30 02:34:22;;;;;;;12.83;9.50;;;;;;;-0.67;80.04;99410.34;4993289;28;103269;-65
2023/01/30 02:36:58;;;;;;;12.37;9.13;;;;;;;-0.65;79.68;99426.78;4998768;28;103235;-64
2023/01/30 02:39:37;;;;;;;14.87;10.77;;;;;;;-0.60;80.07;99409.38;5000365;28;102729;-65
2023/01/30 02:42:12;;;;;;;15.40;11.23;;;;;;;-0.73;81.06;99365.50;5031993;27;102753;-64
2023/01/30 02:44:52;;;;;;;16.10;10.70;;;;;;;-0.74;80.67;99350.81;4994788;28;106119;-65
2023/01/30 02:47:28;;;;;;;15.73;10.63;;;;;;;-0.93;81.44;99373.63;4999351;28;103191;-65
2023/01/30 02:50:00;;;;;;;15.93;11.33;;;;;;;-0.84;82.22;99383.00;4995941;28;102730;-65
2023/01/30 02:52:30;;;;;;;15.57;10.57;;;;;;;-0.76;81.91;99366.38;5000427;28;102721;-65
2023/01/30 02:54:58;;;;;;;15.63;11.17;;;;;;;-0.70;81.68;99376.66;4996117;28;104342;-65
2023/01/30 02:57:26;;;;;;;16.40;11.17;;;;;;;-0.65;81.53;99364.50;5000020;28;102987;-64
2023/01/30 03:00:03;;;;;;;14.67;10.20;;;;;;;-0.54;81.13;99360.84;4998065;28;103265;-64
2023/01/30 03:03:06;;;;;;;14.10;10.60;;;;;;;-0.49;80.86;99359.03;4989238;28;102898;-64
2023/01/30 03:05:53;;;;;;;15.70;10.63;;;;;;;-0.53;80.46;99365.16;5029930;27;104007;-64
2023/01/30 03:08:30;;;;;;;12.90;8.90;;;;;;;-0.36;80.81;99363.09;4995334;28;104126;-64
2023/01/30 03:11:03;;;;;;;15.77;11.13;;;;;;;-0.47;80.97;99331.28;4998543;28;102785;-65
2023/01/30 03:13:42;;;;;;;15.20;11.17;;;;;;;-0.39;80.73;99342.41;4991469;28;102726;-64
2023/01/30 03:16:15;;;;;;;16.20;11.33;;;;;;;-0.34;80.90;99317.22;4998075;28;103306;-64
2023/01/30 03:18:46;;;;;;;15.50;10.67;;;;;;;-0.60;82.37;99290.00;4996811;28;105436;-64
2023/01/30 03:21:18;;;;;;;18.30;11.57;;;;;;;-0.45;81.78;99277.63;4995964;28;102635;-64
2023/01/30 03:23:46;;;;;;;14.90;10.10;;;;;;;-0.43;82.18;99262.84;4990689;28;102820;-64
2023/01/30 03:26:19;;;;;;;13.00;10.17;;;;;;;-0.49;81.93;99235.28;5014211;28;104138;-65
2023/01/30 03:28:50;;;;;;;12.80;9.40;;;;;;;-0.42;82.05;99223.03;4997379;28;103184;-64
2023/01/30 03:31:18;;;;;;;16.60;10.80;;;;;;;-0.36;81.63;99221.16;4998454;28;103240;-64
2023/01/30 03:33:46;;;;;;;14.07;10.90;;;;;;;-0.29;81.54;99234.88;4990630;28;103368;-65
2023/01/30 03:36:14;;;;;;;14.30;11.03;;;;;;;-0.22;80.59;99244.25;4997108;28;103975;-64
2023/01/30 03:38:44;;;;;;;16.23;10.90;;;;;;;-0.10;80.18;99244.00;4996639;28;103263;-65
2023/01/30 03:41:12;;;;;;;13.10;10.13;;;;;;;0.09;79.44;99255.69;5000433;28;102730;-64
2023/01/30 03:43:40;;;;;;;12.20;9.60;;;;;;;0.05;79.54;99264.47;4993786;28;102734;-65
2023/01/30 03:46:08;;;;;;;11.40;8.80;;;;;;;0.25;79.17;99283.09;4997988;28;105226;-64
2023/01/30 03:48:36;;;;;;;14.07;10.00;;;;;;;0.34;78.43;99275.06;4997655;28;106058;-66
2023/01/30 03:51:06;;;;;;;14.10;9.57;;;;;;;0.39;78.53;99275.81;4990067;28;103715;-64
2023/01/30 03:53:34;;;;;;;12.37;9.40;;;;;;;0.41;78.05;99271.47;4996918;28;103607;-64
2023/01/30 03:56:03;;;;;;;13.97;9.27;;;;;;;0.41;78.24;99250.66;4997668;28;104175;-64
2023/01/30 03:58:35;;;;;;;13.77;9.87;;;;;;;0.41;78.33;99268.00;5023710;27;103244;-64
2023/01/30 04:01:15;;;;;;;12.97;9.43;;;;;;;0.44;78.23;99253.19;4997422;28;102746;-64
2023/01/30 04:03:43;;;;;;;13.63;9.97;;;;;;;0.48;78.02;99256.53;4995358;28;102716;-64
2023/01/30 04:06:12;;;;;;;16.33;10.20;;;;;;;0.39;78.35;99260.22;4998146;28;103907;-64
2023/01/30 04:08:40;;;;;;;12.33;8.97;;;;;;;0.39;78.14;99260.22;4989414;28;105021;-66
2023/01/30 04:11:14;;;;;;;12.20;9.30;;;;;;;0.39;77.86;99257.59;4995385;28;102774;-64
2023/01/30 04:13:42;;;;;;;12.43;9.00;;;;;;;0.51;77.92;99254.75;4997677;28;104281;-64
2023/01/30 04:16:18;;;;;;;13.13;9.73;;;;;;;0.45;77.65;99249.69;4991859;28;103803;-64
2023/01/30 04:19:06;;;;;;;10.67;7.77;;;;;;;0.61;77.37;99254.53;4995518;28;104022;-64
2023/01/30 04:21:34;;;;;;;10.73;8.43;;;;;;;0.57;77.42;99249.41;4993360;28;103102;-64
2023/01/30 04:24:02;;;;;;;10.47;8.37;;;;;;;0.70;77.03;99241.31;4996645;28;104036;-65
2023/01/30 04:26:32;;;;;;;12.17;8.77;;;;;;;0.79;76.57;99254.06;4999285;27;103482;-65
2023/01/30 04:29:01;;;;;;;11.50;8.17;;;;;;;0.74;76.78;99245.53;5002831;28;103221;-65
2023/01/30 04:31:30;;;;;;;11.17;8.53;;;;;;;0.84;76.63;99249.63;4995661;28;102689;-64
2023/01/30 04:34:06;;;;;;;10.03;8.27;;;;;;;0.87;76.27;99246.97;5000235;28;102938;-65
2023/01/30 04:36:35;;;;;;;11.67;8.20;;;;;;;0.89;76.07;99247.78;5001539;28;103869;-65
2023/01/30 04:39:04;;;;;;;14.07;9.17;;;;;;;0.93;76.03;99246.78;5001039;28;104435;-64
2023/01/30 04:41:34;;;;;;;11.30;8.43;;;;;;;1.08;75.77;99246.41;5014181;28;102786;-65
2023/01/30 04:44:04;;;;;;;9.73;7.30;;;;;;;1.10;75.68;99239.41;4994439;28;102876;-65
2023/01/30 04:46:40;;;;;;;12.43;8.50;;;;;;;1.09;75.47;99237.72;4996897;28;104417;-64
2023/01/30 04:49:09;;;;;;;11.33;7.90;;;;;;;1.16;75.20;99232.31;4996117;28;103197;-65
2023/01/30 04:51:39;;;;;;;10.70;7.43;;;;;;;1.24;75.07;99242.50;4995025;28;103021;-65
2023/01/30 04:54:07;;;;;;;12.20;7.97;;;;;;;1.15;74.96;99238.41;4994651;28;104021;-65
2023/01/30 04:56:37;;;;;;;7.90;6.33;;;;;;;1.25;74.51;99239.03;4999751;28;104043;-65
2023/01/30 04:59:06;;;;;;;10.83;7.87;;;;;;;1.14;74.21;99231.50;4996228;28;105501;-65
2023/01/30 05:01:39;;;;;;;9.33;7.13;;;;;;;1.20;74.42;99230.47;5001375;28;102657;-65
2023/01/30 05:04:08;;;;;;;8.87;7.27;;;;;;;1.22;74.50;99226.09;4999140;28;102768;-67
2023/01/30 05:06:36;;;;;;;12.30;8.23;;;;;;;1.23;73.67;99229.53;4989301;28;103664;-64
2023/01/30 05:09:05;;;;;;;8.90;6.60;;;;;;;1.36;73.80;99226.56;5001681;28;103289;-65
2023/01/30 05:11:33;;;;;;;9.03;7.07;;;;;;;1.33;74.23;99226.66;5000383;28;102618;-65
2023/01/30 05:14:02;;;;;;;8.73;7.10;;;;;;;1.38;74.15;99214.34;5002895;28;104049;-63
2023/01/30 05:16:30;;;;;;;10.23;7.10;;;;;;;1.38;74.17;99210.88;4997299;28;103196;-64
2023/01/30 05:18:58;;;;;;;8.93;6.43;;;;;;;1.36;73.58;99204.88;4999492;28;103256;-64
2023/01/30 05:21:27;;;;;;;12.13;7.13;;;;;;;1.33;73.83;99195.41;4995031;28;102656;-64
2023/01/30 05:23:56;;;;;;;8.07;6.60;;;;;;;1.31;73.71;99201.56;5000608;28;102764;-65
2023/01/30 05:26:25;;;;;;;9.53;6.67;;;;;;;1.44;73.51;99208.97;4998757;28;103276;-65
2023/01/30 05:28:57;;;;;;;7.40;6.57;;;;;;;1.48;73.99;99205.41;4998042;28;103201;-65
2023/01/30 05:31:26;;;;;;;10.67;6.57;;;;;;;1.53;73.65;99208.72;4998817;28;103042;-65
2023/01/30 05:33:54;;;;;;;10.20;6.80;;;;;;;1.55;73.21;99206.06;5000069;28;102644;-66
2023/01/30 05:36:23;;;;;;;8.80;6.80;;;;;;;1.62;73.19;99208.47;4998444;28;103229;-66
2023/01/30 05:38:51;;;;;;;8.70;6.63;;;;;;;1.49;73.57;99195.81;4997228;28;103315;-66
2023/01/30 05:41:19;;;;;;;10.63;7.37;;;;;;;1.39;73.90;99190.03;4995666;28;102640;-65
2023/01/30 05:43:50;;;;;;;8.17;6.47;;;;;;;1.39;73.70;99179.63;4998793;28;103619;-65
2023/01/30 05:46:18;;;;;;;9.67;7.47;;;;;;;1.50;73.81;99189.72;4999072;28;104094;-65
2023/01/30 05:48:48;;;;;;;9.07;6.80;;;;;;;1.45;73.67;99200.28;5000931;28;103259;-65
2023/01/30 05:51:18;;;;;;;9.10;6.80;;;;;;;1.50;73.25;99208.81;5000106;28;102680;-66
2023/01/30 05:53:46;;;;;;;9.00;6.47;;;;;;;1.69;72.71;99209.13;4994149;28;102688;-66
2023/01/30 05:56:14;;;;;;;8.87;7.07;;;;;;;1.59;72.17;99211.16;5000794;28;104101;-66
2023/01/30 05:58:42;;;;;;;7.80;6.23;;;;;;;1.65;72.39;99205.78;4998267;28;103241;-66
2023/01/30 06:01:12;;;;;;;9.63;6.67;;;;;;;1.63;72.10;99202.34;4994319;28;102659;-66
2023/01/30 06:03:40;;;;;;;9.07;6.20;;;;;;;1.68;71.82;99203.06;4999145;28;102989;-66
2023/01/30 06:06:12;;;;;;;9.47;6.80;;;;;;;1.65;71.38;99200.59;4995851;28;104247;-66
2023/01/30 06:08:40;;;;;;;8.97;6.93;;;;;;;1.51;72.04;99197.53;5026482;27;104212;-66
2023/01/30 06:11:10;;;;;;;7.77;6.47;;;;;;;1.59;71.48;99197.28;5001038;28;102914;-67
2023/01/30 06:13:38;;;;;;;9.87;6.87;;;;;;;1.70;71.50;99201.31;5003663;28;103968;-67
2023/01/30 06:16:08;;;;;;;8.90;6.73;;;;;;;1.60;71.57;99194.63;4986081;28;103248;-67
2023/01/30 06:18:36;;;;;;;8.83;6.70;;;;;;;1.67;71.27;99180.53;4998812;28;103257;-66
2023/01/30 06:21:04;;;;;;;8.23;6.60;;;;;;;1.66;71.87;99172.75;5000339;28;103045;-67
2023/01/30 06:23:34;;;;;;;7.67;6.07;;;;;;;1.66;71.38;99177.97;5014962;27;103982;-67
2023/01/30 06:26:02;;;;;;;8.97;6.50;;;;;;;1.43;71.66;99163.00;5000162;28;104055;-67
2023/01/30 06:28:36;;;;;;;9.70;7.03;;;;;;;1.50;72.16;99167.16;4987657;28;103249;-66
2023/01/30 06:31:06;;;;;;;7.50;6.03;;;;;;;1.51;72.29;99174.06;4993661;28;102812;-66
2023/01/30 06:33:34;;;;;;;8.20;6.07;;;;;;;1.68;71.60;99169.22;4996513;28;104399;-66
2023/01/30 06:36:03;;;;;;;7.87;6.50;;;;;;;1.69;72.00;99163.09;4994278;28;103924;-66
2023/01/30 06:38:31;;;;;;;9.23;7.03;;;;;;;1.63;71.76;99146.78;4991891;28;103231;-65
2023/01/30 06:41:00;;;;;;;9.13;6.50;;;;;;;1.67;72.45;99149.28;4995019;28;103434;-65
2023/01/30 06:43:28;;;;;;;8.67;6.50;;;;;;;1.71;71.58;99156.09;4994679;28;104036;-65
2023/01/30 06:45:58;;;;;;;8.90;6.87;;;;;;;1.82;71.34;99162.75;4993907;28;103266;-65
2023/01/30 06:48:26;;;;;;;7.63;6.27;;;;;;;1.80;71.25;99156.75;4994483;28;103210;-66
2023/01/30 06:50:54;;;;;;;8.23;6.27;;;;;;;1.93;71.37;99156.31;4991819;28;103170;-66
2023/01/30 06:53:28;;;;;;;8.70;6.20;;;;;;;1.94;70.93;99149.38;4999825;28;103724;-66
2023/01/30 06:55:57;;;;;;;9.40;5.80;;;;;;;2.04;71.00;99167.28;5011005;27;104337;-66
2023/01/30 06:58:26;;;;;;;12.63;5.40;;;;;;;2.06;70.77;99160.25;4992390;28;103218;-66
2023/01/30 07:00:54;;;;;;;9.37;5.93;;;;;;;2.15;71.13;99164.34;4992051;28;102785;-66
2023/01/30 07:03:22;;;;;;;7.53;5.50;;;;;;;2.23;70.47;99164.94;4990189;28;102780;-66
2023/01/30 07:05:50;;;;;;;9.13;6.47;;;;;;;2.29;70.62;99169.97;4993919;28;102997;-66
2023/01/30 07:08:20;;;;;;;8.03;5.67;;;;;;;2.22;71.01;99163.22;4996528;28;102955;-66
2023/01/30 07:10:51;;;;;;;14.43;5.97;;;;;;;2.26;70.82;99165.72;4998646;28;102587;-66
2023/01/30 07:13:19;;;;;;;7.80;5.53;;;;;;;2.28;70.76;99178.69;5003736;28;103748;-67
2023/01/30 07:15:48;;;;;;;10.13;5.63;;;;;;;2.22;71.11;99173.66;5000838;28;104041;-67
2023/01/30 07:18:16;;;;;;;7.90;5.73;;;;;;;2.27;71.34;99177.00;4997091;28;103352;-67
2023/01/30 07:20:47;;;;;;;9.20;5.33;;;;;;;2.22;71.04;99197.13;5003321;28;102716;-67
2023/01/30 07:23:16;;;;;;;8.37;5.30;;;;;;;2.37;70.74;99198.41;4995852;28;104136;-66
2023/01/30 07:25:46;;;;;;;8.93;5.67;;;;;;;2.41;71.20;99195.66;5000058;28;103230;-67
2023/01/30 07:28:14;;;;;;;6.70;4.73;;;;;;;2.51;71.14;99202.28;5002614;28;103008;-67
2023/01/30 07:30:42;;;;;;;7.27;5.37;;;;;;;2.46;71.36;99206.78;5001967;28;102668;-66
2023/01/30 07:33:12;;;;;;;8.00;5.50;;;;;;;2.49;71.35;99193.66;4998896;28;102639;-67
2023/01/30 07:35:39;;;;;;;19.50;12.40;;;;;;;2.51;71.10;99197.06;4999753;28;103363;-67
2023/01/30 07:38:07;;;;;;;14.90;9.80;;;;;;;2.65;71.17;99192.25;4999395;28;104106;-67
2023/01/30 07:40:35;;;;;;;31.53;21.17;;;;;;;2.73;70.88;99198.06;5001905;28;102666;-67
2023/01/30 07:43:05;;;;;;;22.27;14.97;;;;;;;2.83;71.04;99204.72;5001371;28;102976;-67
2023/01/30 07:45:36;;;;;;;15.50;9.67;;;;;;;2.76;71.29;99208.41;5000411;28;103951;-67
2023/01/30 07:48:06;;;;;;;9.10;7.23;;;;;;;2.78;70.97;99213.56;5001148;28;103205;-66
2023/01/30 07:50:38;;;;;;;8.27;6.47;;;;;;;2.74;71.34;99219.81;5000311;28;102821;-67
2023/01/30 07:53:08;;;;;;;7.73;5.37;;;;;;;2.87;70.97;99221.09;5004184;28;102706;-67
2023/01/30 07:55:38;;;;;;;6.07;5.00;;;;;;;2.98;71.02;99212.91;4999967;28;103221;-68
2023/01/30 07:58:07;;;;;;;7.37;5.30;;;;;;;2.93;71.57;99202.63;5031910;27;105621;-67
2023/01/30 08:00:36;;;;;;;6.97;5.07;;;;;;;2.81;72.32;99198.66;4997602;28;102673;-67
2023/01/30 08:03:04;;;;;;;7.60;4.70;;;;;;;2.98;71.76;99192.03;5000599;28;102817;-68
2023/01/30 08:05:32;;;;;;;6.23;5.07;;;;;;;3.05;71.41;99193.53;4998775;28;103703;-67
2023/01/30 08:08:04;;;;;;;7.10;5.90;;;;;;;2.80;72.25;99190.91;4997863;28;103210;-67
2023/01/30 08:10:32;;;;;;;6.80;5.33;;;;;;;2.90;73.01;99195.75;4999426;28;102770;-67
2023/01/30 08:13:00;;;;;;;9.03;5.57;;;;;;;3.10;72.42;99209.88;4994869;28;103781;-67
2023/01/30 08:15:30;;;;;;;7.67;5.00;;;;;;;3.24;72.57;99215.50;4996419;28;103931;-67
2023/01/30 08:17:58;;;;;;;6.80;5.03;;;;;;;3.13;73.83;99233.28;4999660;28;103258;-67
2023/01/30 08:20:27;;;;;;;7.00;5.80;;;;;;;3.05;74.31;99232.69;4998811;28;102914;-67
2023/01/30 08:22:55;;;;;;;7.47;5.43;;;;;;;3.06;74.62;99200.47;5001770;28;104105;-67
2023/01/30 08:25:24;;;;;;;8.40;7.20;;;;;;;2.96;74.75;99193.84;4998435;28;103268;-67
2023/01/30 08:27:55;;;;;;;10.37;7.77;;;;;;;2.99;75.23;99189.38;5001989;28;103200;-67
2023/01/30 08:30:23;;;;;;;11.20;7.00;;;;;;;2.96;75.53;99178.19;5000830;28;102938;-66
2023/01/30 08:32:51;;;;;;;6.90;5.50;;;;;;;2.81;76.86;99156.91;4999738;28;102724;-66
2023/01/30 08:35:19;;;;;;;8.53;5.80;;;;;;;2.96;76.63;99139.88;4998251;28;104076;-67
2023/01/30 08:37:47;;;;;;;7.73;5.70;;;;;;;3.65;74.49;99138.25;5031162;27;104028;-67
2023/01/30 08:40:15;;;;;;;7.37;5.50;;;;;;;3.39;74.21;99152.28;5001915;28;102920;-67
2023/01/30 08:42:45;;;;;;;7.37;5.43;;;;;;;2.99;74.61;99163.28;5002435;28;102673;-66
2023/01/30 08:45:13;;;;;;;7.77;5.93;;;;;;;3.15;74.65;99168.78;4998907;28;103418;-67
2023/01/30 08:47:41;;;;;;;9.10;6.03;;;;;;;3.32;74.38;99161.22;4998058;28;103925;-66
2023/01/30 08:50:10;;;;;;;7.87;5.87;;;;;;;3.36;74.18;99165.44;4999857;28;102617;-66
2023/01/30 08:52:38;;;;;;;7.13;5.77;;;;;;;3.43;74.22;99159.94;5000069;28;102833;-66
2023/01/30 08:55:07;;;;;;;9.67;5.30;;;;;;;3.42;72.91;99144.34;4997219;28;104263;-66
2023/01/30 08:57:34;;;;;;;6.83;5.50;;;;;;;3.53;73.38;99136.94;4999866;28;103186;-66
2023/01/30 09:00:05;;;;;;;9.80;7.07;;;;;;;3.71;72.78;99127.53;4996089;28;103038;-66
2023/01/30 09:02:33;;;;;;;9.77;5.87;;;;;;;4.17;71.58;99116.16;4999398;28;103027;-66
2023/01/30 09:05:01;;;;;;;8.83;5.73;;;;;;;4.24;70.31;99107.19;4994768;28;103649;-66
2023/01/30 09:07:29;;;;;;;7.90;5.50;;;;;;;3.99;70.51;99084.59;4998412;28;103192;-69
2023/01/30 09:09:57;;;;;;;7.77;5.67;;;;;;;3.81;71.06;99093.19;5000665;28;102754;-69
2023/01/30 09:12:25;;;;;;;7.03;5.20;;;;;;;3.99;71.70;99099.44;4999082;28;102600;-66
2023/01/30 09:14:57;;;;;;;7.83;5.07;;;;;;;3.72;72.17;99096.16;5000242;28;104112;-66
2023/01/30 09:17:26;;;;;;;5.03;4.20;;;;;;;3.90;71.65;99103.25;5000596;28;103218;-66
2023/01/30 09:19:54;;;;;;;4.37;3.83;;;;;;;3.77;72.45;99096.81;4998148;28;102811;-66
2023/01/30 09:22:25;;;;;;;5.97;4.87;;;;;;;3.88;71.78;99099.84;5031643;27;102735;-69
2023/01/30 09:24:54;;;;;;;7.60;4.50;;;;;;;3.95;72.01;99103.09;5003085;28;103301;-69
2023/01/30 09:27:21;;;;;;;6.43;5.17;;;;;;;4.01;71.73;99101.06;5001774;28;103244;-69
2023/01/30 09:29:49;;;;;;;5.30;4.20;;;;;;;4.01;73.42;99100.25;5000074;28;103025;-69
2023/01/30 09:32:17;;;;;;;9.60;5.60;;;;;;;4.14;72.48;99100.59;5002572;28;104021;-66
2023/01/30 09:34:47;;;;;;;7.70;5.13;;;;;;;4.21;72.49;99102.06;4998705;28;103239;-66
2023/01/30 09:37:15;;;;;;;5.80;3.87;;;;;;;4.13;73.14;99093.69;5012563;27;103304;-66
2023/01/30 09:39:43;;;;;;;4.23;3.03;;;;;;;4.25;74.07;99093.16;4999228;28;103501;-66
2023/01/30 09:42:54;;;;;;;3.37;2.53;;;;;;;4.22;74.65;99090.66;4994360;28;103396;-69
2023/01/30 09:45:43;;;;;;;3.17;2.57;;;;;;;4.10;75.80;99082.41;5003095;28;103236;-66
2023/01/30 09:48:18;;;;;;;4.30;2.43;;;;;;;4.19;75.85;99082.94;4997383;28;103164;-66
2023/01/30 09:51:11;;;;;;;4.10;2.87;;;;;;;4.16;74.88;99086.53;5000687;28;102769;-66
2023/01/30 09:53:57;;;;;;;3.87;2.50;;;;;;;4.27;75.39;99075.63;4999559;28;103071;-65
2023/01/30 09:56:28;;;;;;;3.50;2.70;;;;;;;4.26;74.68;99076.56;5000320;28;103986;-65
2023/01/30 09:58:57;;;;;;;3.20;2.30;;;;;;;4.27;74.87;99054.72;4998307;28;103211;-65
2023/01/30 10:01:33;;;;;;;5.83;3.20;;;;;;;4.30;74.71;99038.88;5003847;28;102712;-68
2023/01/30 10:04:14;;;;;;;4.37;2.93;;;;;;;4.24;74.41;99050.47;5007085;28;102691;-69
2023/01/30 10:06:54;;;;;;;2.60;2.40;;;;;;;4.27;74.83;99062.56;5002426;28;104098;-68
2023/01/30 10:09:33;;;;;;;4.83;3.10;;;;;;;4.60;73.56;99054.16;5002776;28;103238;-68
2023/01/30 10:12:17;;;;;;;5.67;2.97;;;;;;;4.62;73.94;99047.09;5000622;28;102663;-66
2023/01/30 10:15:01;;;;;;;4.20;3.20;;;;;;;4.57;73.88;99042.97;4999587;28;102700;-65
2023/01/30 10:17:41;;;;;;;4.20;2.83;;;;;;;4.60;73.41;99032.38;4996909;28;104312;-66
2023/01/30 10:20:31;;;;;;;3.67;3.00;;;;;;;4.57;73.62;99035.13;4996053;28;103055;-66
2023/01/30 10:23:22;;;;;;;2.90;2.60;;;;;;;4.57;73.20;99032.50;4998737;28;103469;-65
2023/01/30 10:25:55;;;;;;;3.27;2.47;;;;;;;4.64;73.16;99040.03;4997532;28;103655;-65
2023/01/30 10:28:27;;;;;;;3.27;2.57;;;;;;;4.74;73.40;99037.03;4997188;28;103097;-66
2023/01/30 10:31:05;;;;;;;3.40;2.40;;;;;;;4.83;73.55;99044.47;4997261;28;103245;-65
2023/01/30 10:33:36;;;;;;;3.60;2.70;;;;;;;4.59;73.81;99042.00;4999357;28;103035;-66
2023/01/30 10:36:10;;;;;;;3.57;2.40;;;;;;;4.85;73.62;99038.25;4998117;28;103897;-65
2023/01/30 10:38:46;;;;;;;3.33;2.57;;;;;;;4.68;73.99;99044.22;4998729;28;103239;-65
2023/01/30 10:41:24;;;;;;;2.80;2.40;;;;;;;4.63;73.78;99037.50;4997585;28;103210;-65
2023/01/30 10:43:59;;;;;;;3.10;2.80;;;;;;;4.68;74.13;99031.16;4999857;28;102611;-65
2023/01/30 10:46:40;;;;;;;3.30;3.00;;;;;;;4.81;73.48;99022.72;4999168;28;102763;-65
2023/01/30 10:49:15;;;;;;;2.77;2.40;;;;;;;4.72;73.92;99037.06;4995157;28;104323;-65
2023/01/30 10:51:52;;;;;;;5.53;2.47;;;;;;;4.74;74.45;99023.94;4994363;28;103211;-65
2023/01/30 10:54:28;;;;;;;8.07;3.03;;;;;;;4.83;74.76;99019.13;5003315;28;102646;-68
2023/01/30 10:57:03;;;;;;;3.67;2.30;;;;;;;4.88;74.87;99021.56;5003970;28;102678;-68
2023/01/30 10:59:48;;;;;;;2.50;2.17;;;;;;;4.88;75.37;99022.41;5001376;28;104850;-65
2023/01/30 11:02:24;;;;;;;2.67;2.37;;;;;;;4.73;76.55;99028.31;4994459;28;103075;-66
2023/01/30 11:04:58;;;;;;;3.90;2.30;;;;;;;4.64;77.18;99023.47;5002551;28;102708;-66
2023/01/30 11:07:30;;;;;;;2.83;2.43;;;;;;;4.69;77.99;99024.13;4998123;28;103564;-66
2023/01/30 11:10:00;;;;;;;2.50;1.90;;;;;;;4.88;77.22;99037.28;5000901;28;103236;-66
2023/01/30 11:12:31;;;;;;;2.63;1.87;;;;;;;4.85;77.15;99032.16;4998774;28;104152;-66
2023/01/30 11:15:02;;;;;;;2.13;1.80;;;;;;;4.82;77.24;99033.16;4995364;28;102943;-66
2023/01/30 11:17:34;;;;;;;2.83;1.70;;;;;;;4.75;77.96;99036.94;4994925;28;102674;-66
2023/01/30 11:20:12;;;;;;;2.73;1.80;;;;;;;4.93;77.49;99028.28;4994910;28;103307;-66
2023/01/30 11:22:46;;;;;;;1.47;1.33;;;;;;;4.90;77.85;99025.81;4995178;28;104312;-69
2023/01/30 11:25:18;;;;;;;1.90;1.60;;;;;;;4.76;78.38;99022.09;5034237;27;102701;-69
2023/01/30 11:27:54;;;;;;;1.93;1.60;;;;;;;4.85;78.27;99017.31;5002087;28;102800;-69
2023/01/30 11:30:26;;;;;;;3.03;1.83;;;;;;;4.88;78.60;99018.94;5000812;28;104310;-69
2023/01/30 11:33:10;;;;;;;2.07;1.60;;;;;;;4.72;79.03;99031.84;5000820;28;103216;-69
2023/01/30 11:35:44;;;;;;;2.30;1.73;;;;;;;4.63;80.33;99038.31;4999650;28;102810;-69
2023/01/30 11:38:21;;;;;;;2.50;2.03;;;;;;;4.62;82.35;99035.78;4995590;28;102631;-69
2023/01/30 11:41:01;;;;;;;1.93;1.63;;;;;;;4.80;82.82;99034.13;4999594;28;104006;-69
2023/01/30 11:43:30;;;;;;;1.43;1.30;;;;;;;4.76;83.57;99033.41;4997685;28;103200;-69
2023/01/30 11:45:58;;;;;;;1.70;1.60;;;;;;;4.53;84.73;99041.41;4996103;28;102700;-69
2023/01/30 11:48:30;;;;;;;2.20;2.00;;;;;;;4.45;85.13;99038.25;4997281;28;102730;-69
2023/01/30 11:51:19;;;;;;;1.87;1.67;;;;;;;4.54;85.35;99043.13;4995047;28;104294;-69